createdAt,value
2018-01-10T00:00:30.820Z,30.0
2018-01-10T00:01:31.549Z,28.5
2018-01-10T00:02:32.369Z,27.3
2018-01-10T00:03:33.100Z,27.2
2018-01-10T00:04:33.899Z,31.3
2018-01-10T00:05:34.622Z,29.0
2018-01-10T00:06:35.355Z,26.5
2018-01-10T00:07:36.451Z,26.6
2018-01-10T00:08:37.184Z,23.9
2018-01-10T00:09:37.999Z,23.1
2018-01-10T00:10:38.719Z,25.6
2018-01-10T00:11:39.449Z,25.5
2018-01-10T00:12:40.288Z,30.8
2018-01-10T00:13:41.068Z,24.0
2018-01-10T00:14:41.791Z,23.8
2018-01-10T00:15:42.593Z,27.6
2018-01-10T00:16:43.394Z,24.4
2018-01-10T00:17:44.159Z,29.1
2018-01-10T00:18:44.899Z,22.3
2018-01-10T00:19:45.628Z,22.1
2018-01-10T00:20:46.360Z,27.4
2018-01-10T00:21:47.089Z,27.4
2018-01-10T00:22:47.900Z,27.0
2018-01-10T00:23:48.615Z,26.8
2018-01-10T00:24:49.334Z,20.8
2018-01-10T00:25:50.070Z,21.4
2018-01-10T00:26:50.797Z,24.5
2018-01-10T00:27:51.527Z,27.3
2018-01-10T00:28:52.308Z,24.4
2018-01-10T00:29:53.034Z,23.7
2018-01-10T00:30:53.824Z,28.0
2018-01-10T00:31:54.542Z,24.9
2018-01-10T00:32:55.259Z,22.5
2018-01-10T00:33:55.983Z,23.9
2018-01-10T00:34:56.701Z,21.9
2018-01-10T00:35:57.430Z,25.5
2018-01-10T00:36:58.269Z,27.5
2018-01-10T00:37:58.991Z,22.7
2018-01-10T00:38:59.829Z,22.8
2018-01-10T00:40:00.546Z,26.6
2018-01-10T00:41:01.272Z,24.1
2018-01-10T00:42:02.010Z,22.4
2018-01-10T00:43:02.790Z,21.6
2018-01-10T00:44:03.571Z,23.5
2018-01-10T00:45:04.305Z,24.6
2018-01-10T00:46:05.079Z,24.0
2018-01-10T00:47:05.808Z,25.7
2018-01-10T00:48:06.530Z,24.5
2018-01-10T00:49:07.306Z,24.9
2018-01-10T00:50:08.126Z,20.4
2018-01-10T00:51:08.855Z,18.8
2018-01-10T00:52:09.577Z,22.7
2018-01-10T00:53:10.301Z,21.8
2018-01-10T00:54:11.324Z,22.3
2018-01-10T00:55:12.063Z,21.7
2018-01-10T00:56:12.789Z,21.8
2018-01-10T00:57:13.508Z,25.5
2018-01-10T00:58:14.233Z,21.0
2018-01-10T00:59:15.077Z,24.0
2018-01-10T01:00:15.884Z,24.6
2018-01-10T01:01:16.606Z,24.3
2018-01-10T01:02:17.320Z,21.9
2018-01-10T01:03:18.055Z,19.1
2018-01-10T01:04:18.781Z,21.2
2018-01-10T01:05:19.516Z,22.4
2018-01-10T01:06:20.236Z,18.5
2018-01-10T01:07:21.089Z,18.5
2018-01-10T01:08:21.808Z,17.9
2018-01-10T01:09:22.619Z,17.9
2018-01-10T01:10:23.367Z,22.5
2018-01-10T01:11:24.123Z,22.9
2018-01-10T01:12:24.800Z,17.4
2018-01-10T01:13:25.521Z,22.4
2018-01-10T01:14:26.328Z,22.6
2018-01-10T01:15:27.101Z,20.0
2018-01-10T01:16:27.890Z,18.8
2018-01-10T01:17:28.699Z,18.8
2018-01-10T01:18:29.420Z,22.7
2018-01-10T01:19:30.144Z,23.6
2018-01-10T01:20:30.869Z,18.7
2018-01-10T01:21:31.653Z,21.2
2018-01-10T01:22:32.434Z,19.2
2018-01-10T01:23:33.188Z,22.1
2018-01-10T01:24:33.935Z,21.7
2018-01-10T01:25:34.709Z,21.3
2018-01-10T01:26:35.430Z,20.2
2018-01-10T01:27:36.163Z,21.4
2018-01-10T01:28:36.950Z,20.9
2018-01-10T01:29:37.682Z,20.7
2018-01-10T01:30:38.460Z,53.0
2018-01-10T01:31:39.229Z,29.1
2018-01-10T01:32:39.983Z,26.5
2018-01-10T01:33:40.759Z,73.9
2018-01-10T01:34:41.488Z,27.3
2018-01-10T01:35:42.221Z,28.0
2018-01-10T01:36:42.948Z,24.1
2018-01-10T01:37:43.668Z,31.4
2018-01-10T01:38:44.400Z,24.9
2018-01-10T01:39:45.131Z,25.8
2018-01-10T01:40:45.864Z,24.6
2018-01-10T01:41:46.576Z,25.6
2018-01-10T01:42:47.304Z,23.8
2018-01-10T01:43:48.040Z,28.0
2018-01-10T01:44:48.764Z,25.2
2018-01-10T01:45:49.495Z,24.8
2018-01-10T01:46:50.221Z,28.4
2018-01-10T01:47:51.067Z,25.8
2018-01-10T01:48:51.810Z,26.8
2018-01-10T01:49:52.530Z,33.2
2018-01-10T01:50:53.259Z,29.8
2018-01-10T01:51:53.989Z,33.1
2018-01-10T01:52:54.766Z,29.7
2018-01-10T01:53:55.485Z,29.0
2018-01-10T01:54:56.258Z,29.6
2018-01-10T01:55:57.058Z,34.5
2018-01-10T01:56:57.779Z,28.0
2018-01-10T01:57:58.564Z,29.9
2018-01-10T01:58:59.299Z,33.6
2018-01-10T02:00:00.016Z,32.3
2018-01-10T02:01:00.790Z,28.8
2018-01-10T02:02:01.514Z,34.5
2018-01-10T02:03:02.300Z,30.8
2018-01-10T02:04:03.048Z,33.2
2018-01-10T02:05:03.830Z,36.2
2018-01-10T02:06:04.606Z,31.6
2018-01-10T02:07:05.338Z,32.7
2018-01-10T02:08:06.072Z,28.7
2018-01-10T02:09:06.869Z,30.2
2018-01-10T02:10:07.592Z,34.7
2018-01-10T02:11:08.470Z,34.3
2018-01-10T02:12:09.189Z,27.9
2018-01-10T02:13:09.929Z,31.4
2018-01-10T02:14:10.702Z,33.6
2018-01-10T02:15:11.427Z,27.4
2018-01-10T02:16:12.228Z,28.8
2018-01-10T02:17:13.001Z,29.7
2018-01-10T02:18:13.733Z,30.6
2018-01-10T02:19:14.534Z,34.6
2018-01-10T02:20:15.338Z,30.5
2018-01-10T02:21:16.171Z,28.8
2018-01-10T02:22:16.894Z,32.4
2018-01-10T02:23:17.642Z,34.1
2018-01-10T02:24:18.371Z,35.0
2018-01-10T02:25:19.190Z,31.5
2018-01-10T02:26:19.912Z,27.2
2018-01-10T02:27:20.635Z,23.0
2018-01-10T02:28:21.359Z,24.0
2018-01-10T02:29:22.078Z,28.3
2018-01-10T02:30:22.871Z,26.3
2018-01-10T02:31:23.601Z,25.2
2018-01-10T02:32:24.340Z,24.6
2018-01-10T02:33:25.060Z,26.6
2018-01-10T02:34:25.790Z,30.7
2018-01-10T02:35:26.515Z,27.5
2018-01-10T02:36:27.319Z,23.3
2018-01-10T02:37:28.048Z,27.3
2018-01-10T02:38:28.817Z,23.5
2018-01-10T02:39:29.595Z,26.5
2018-01-10T02:40:30.329Z,26.6
2018-01-10T02:41:31.045Z,25.9
2018-01-10T02:42:31.779Z,29.2
2018-01-10T02:43:32.509Z,34.0
2018-01-10T02:44:33.329Z,29.8
2018-01-10T02:45:34.065Z,39.8
2018-01-10T02:46:34.800Z,33.7
2018-01-10T02:47:35.537Z,29.7
2018-01-10T02:48:36.326Z,34.8
2018-01-10T02:49:37.060Z,32.8
2018-01-10T02:50:37.823Z,33.7
2018-01-10T02:51:38.580Z,34.6
2018-01-10T02:52:39.309Z,37.5
2018-01-10T02:53:40.042Z,34.1
2018-01-10T02:54:40.820Z,36.8
2018-01-10T02:55:41.550Z,35.7
2018-01-10T02:56:42.280Z,41.9
2018-01-10T02:57:43.004Z,35.9
2018-01-10T02:58:43.741Z,38.8
2018-01-10T02:59:44.469Z,37.1
2018-01-10T03:00:45.197Z,41.1
2018-01-10T03:01:45.999Z,38.4
2018-01-10T03:02:46.720Z,34.2
2018-01-10T03:03:47.450Z,40.2
2018-01-10T03:04:48.188Z,43.0
2018-01-10T03:05:48.949Z,39.7
2018-01-10T03:06:49.990Z,47.9
2018-01-10T03:07:50.714Z,42.8
2018-01-10T03:08:51.374Z,50.9
2018-01-10T03:09:52.148Z,45.2
2018-01-10T03:10:52.879Z,45.6
2018-01-10T03:11:53.658Z,49.9
2018-01-10T03:12:54.438Z,44.4
2018-01-10T03:13:55.223Z,48.5
2018-01-10T03:14:56.007Z,51.3
2018-01-10T03:15:56.745Z,47.6
2018-01-10T03:16:57.511Z,47.0
2018-01-10T03:17:58.232Z,43.0
2018-01-10T03:18:59.079Z,42.8
2018-01-10T03:19:59.805Z,42.3
2018-01-10T03:21:00.539Z,38.8
2018-01-10T03:22:01.253Z,43.2
2018-01-10T03:23:01.988Z,43.1
2018-01-10T03:24:02.844Z,45.2
2018-01-10T03:25:03.620Z,37.3
2018-01-10T03:26:04.343Z,40.2
2018-01-10T03:27:05.066Z,35.3
2018-01-10T03:28:05.784Z,37.8
2018-01-10T03:29:06.495Z,40.3
2018-01-10T03:30:07.235Z,38.1
2018-01-10T03:31:08.026Z,33.6
2018-01-10T03:32:08.818Z,31.6
2018-01-10T03:33:09.543Z,31.6
2018-01-10T03:34:10.266Z,30.1
2018-01-10T03:35:11.364Z,33.7
2018-01-10T03:36:12.132Z,29.7
2018-01-10T03:37:12.863Z,32.9
2018-01-10T03:38:13.656Z,31.8
2018-01-10T03:39:14.397Z,31.8
2018-01-10T03:40:15.167Z,30.8
2018-01-10T03:41:15.878Z,29.3
2018-01-10T03:42:16.687Z,33.7
2018-01-10T03:43:17.473Z,28.3
2018-01-10T03:44:18.194Z,26.9
2018-01-10T03:45:19.295Z,29.6
2018-01-10T03:46:20.012Z,33.3
2018-01-10T03:47:20.741Z,29.1
2018-01-10T03:48:21.515Z,27.7
2018-01-10T03:49:22.238Z,32.7
2018-01-10T03:50:23.017Z,33.7
2018-01-10T03:51:23.756Z,28.3
2018-01-10T03:52:24.483Z,32.2
2018-01-10T03:53:25.215Z,36.1
2018-01-10T03:54:26.001Z,29.2
2018-01-10T03:55:26.773Z,30.5
2018-01-10T03:56:27.501Z,31.1
2018-01-10T03:57:28.289Z,32.9
2018-01-10T03:58:29.047Z,29.3
2018-01-10T03:59:29.742Z,30.7
2018-01-10T04:00:30.472Z,29.4
2018-01-10T04:01:31.213Z,28.4
2018-01-10T04:02:31.942Z,29.7
2018-01-10T04:03:32.752Z,28.4
2018-01-10T04:04:33.544Z,30.7
2018-01-10T04:05:34.262Z,28.5
2018-01-10T04:06:34.987Z,30.7
2018-01-10T04:07:35.708Z,26.1
2018-01-10T04:08:36.436Z,27.3
2018-01-10T04:09:37.146Z,26.6
2018-01-10T04:10:37.872Z,24.7
2018-01-10T04:11:38.615Z,29.0
2018-01-10T04:12:39.403Z,23.3
2018-01-10T04:13:40.125Z,22.9
2018-01-10T04:14:40.871Z,22.8
2018-01-10T04:15:41.593Z,22.9
2018-01-10T04:16:42.340Z,21.4
2018-01-10T04:17:43.104Z,24.4
2018-01-10T04:18:43.916Z,25.2
2018-01-10T04:19:44.642Z,24.4
2018-01-10T04:20:45.380Z,24.1
2018-01-10T04:21:46.164Z,26.0
2018-01-10T04:22:46.914Z,22.8
2018-01-10T04:23:47.702Z,22.1
2018-01-10T04:24:48.435Z,25.4
2018-01-10T04:25:49.242Z,22.5
2018-01-10T04:26:49.983Z,24.7
2018-01-10T04:27:50.691Z,22.9
2018-01-10T04:28:51.412Z,23.7
2018-01-10T04:29:52.143Z,23.9
2018-01-10T04:30:52.945Z,26.5
2018-01-10T04:31:53.665Z,25.2
2018-01-10T04:32:54.391Z,23.9
2018-01-10T04:33:55.118Z,24.6
2018-01-10T04:34:55.922Z,24.3
2018-01-10T04:35:56.661Z,21.7
2018-01-10T04:36:57.395Z,25.5
2018-01-10T04:37:58.163Z,24.3
2018-01-10T04:38:58.962Z,22.2
2018-01-10T04:39:59.692Z,26.1
2018-01-10T04:41:00.712Z,24.4
2018-01-10T04:42:01.441Z,25.5
2018-01-10T04:43:02.247Z,25.7
2018-01-10T04:44:02.970Z,25.0
2018-01-10T04:45:03.772Z,29.1
2018-01-10T04:46:04.502Z,23.1
2018-01-10T04:47:05.223Z,22.5
2018-01-10T04:48:06.022Z,24.0
2018-01-10T04:49:06.742Z,28.9
2018-01-10T04:50:07.526Z,22.7
2018-01-10T04:51:08.314Z,22.7
2018-01-10T04:52:09.122Z,24.9
2018-01-10T04:53:09.912Z,22.2
2018-01-10T04:54:10.640Z,25.7
2018-01-10T04:55:11.361Z,26.4
2018-01-10T04:56:12.081Z,23.5
2018-01-10T04:57:12.800Z,23.2
2018-01-10T04:58:13.535Z,22.7
2018-01-10T04:59:14.311Z,29.9
2018-01-10T05:00:15.039Z,40.9
2018-01-10T05:01:15.775Z,29.9
2018-01-10T05:02:16.640Z,26.5
2018-01-10T05:03:17.423Z,31.2
2018-01-10T05:04:18.207Z,60.8
2018-01-10T05:05:18.919Z,45.2
2018-01-10T05:06:19.640Z,41.7
2018-01-10T05:07:20.352Z,31.7
2018-01-10T05:08:21.081Z,29.1
2018-01-10T05:09:21.805Z,28.9
2018-01-10T05:10:22.571Z,27.6
2018-01-10T05:11:23.347Z,26.8
2018-01-10T05:12:24.084Z,27.6
2018-01-10T05:13:24.811Z,28.5
2018-01-10T05:14:25.536Z,24.6
2018-01-10T05:15:26.264Z,26.4
2018-01-10T05:16:27.036Z,27.9
2018-01-10T05:17:27.803Z,27.7
2018-01-10T05:18:28.566Z,28.9
2018-01-10T05:19:29.288Z,27.9
2018-01-10T05:20:30.016Z,25.9
2018-01-10T05:21:30.740Z,26.3
2018-01-10T05:22:31.537Z,27.8
2018-01-10T05:23:32.330Z,28.8
2018-01-10T05:24:33.061Z,26.7
2018-01-10T05:25:33.773Z,29.2
2018-01-10T05:26:34.500Z,25.3
2018-01-10T05:27:35.231Z,27.5
2018-01-10T05:28:35.952Z,27.9
2018-01-10T05:29:36.992Z,25.1
2018-01-10T05:30:37.814Z,29.8
2018-01-10T05:31:38.531Z,28.7
2018-01-10T05:32:39.260Z,29.6
2018-01-10T05:33:39.973Z,28.0
2018-01-10T05:34:40.750Z,27.3
2018-01-10T05:35:41.488Z,29.3
2018-01-10T05:36:42.265Z,29.3
2018-01-10T05:37:43.069Z,31.3
2018-01-10T05:38:43.860Z,27.1
2018-01-10T05:39:44.640Z,30.8
2018-01-10T05:40:45.427Z,30.2
2018-01-10T05:41:46.160Z,27.6
2018-01-10T05:42:46.885Z,28.7
2018-01-10T05:45:01.889Z,25.2
2018-01-10T05:46:02.652Z,29.4
2018-01-10T05:47:03.430Z,32.2
2018-01-10T05:48:04.156Z,29.4
2018-01-10T05:49:04.961Z,29.6
2018-01-10T05:50:05.680Z,29.7
2018-01-10T05:51:06.408Z,28.9
2018-01-10T05:52:07.190Z,28.6
2018-01-10T05:53:07.934Z,27.7
2018-01-10T05:54:08.778Z,24.5
2018-01-10T05:55:09.591Z,25.8
2018-01-10T05:56:10.320Z,28.9
2018-01-10T05:57:11.032Z,23.7
2018-01-10T05:58:11.760Z,26.1
2018-01-10T05:59:12.501Z,26.2
2018-01-10T06:00:13.225Z,24.3
2018-01-10T06:01:13.960Z,22.7
2018-01-10T06:02:14.681Z,26.3
2018-01-10T06:03:15.407Z,22.2
2018-01-10T06:04:16.259Z,26.2
2018-01-10T06:05:16.990Z,23.4
2018-01-10T06:06:17.722Z,23.0
2018-01-10T06:07:18.439Z,25.7
2018-01-10T06:08:19.174Z,25.5
2018-01-10T06:09:19.972Z,26.1
2018-01-10T06:10:20.730Z,25.9
2018-01-10T06:11:21.513Z,24.5
2018-01-10T06:12:22.311Z,25.7
2018-01-10T06:13:23.044Z,28.0
2018-01-10T06:14:23.767Z,27.3
2018-01-10T06:15:24.491Z,23.9
2018-01-10T06:16:25.263Z,31.6
2018-01-10T06:17:25.990Z,26.2
2018-01-10T06:18:26.719Z,30.0
2018-01-10T06:19:27.444Z,29.3
2018-01-10T06:20:28.172Z,29.0
2018-01-10T06:21:28.985Z,31.6
2018-01-10T06:22:29.712Z,33.0
2018-01-10T06:23:30.436Z,36.3
2018-01-10T06:24:31.158Z,33.2
2018-01-10T06:25:31.936Z,40.2
2018-01-10T06:26:32.687Z,35.1
2018-01-10T06:27:33.401Z,37.2
2018-01-10T06:28:34.130Z,38.2
2018-01-10T06:29:34.870Z,35.7
2018-01-10T06:30:35.606Z,40.3
2018-01-10T06:31:36.419Z,38.3
2018-01-10T06:32:37.491Z,38.8
2018-01-10T06:33:38.302Z,35.9
2018-01-10T06:34:39.050Z,39.1
2018-01-10T06:35:39.777Z,41.1
2018-01-10T06:36:40.560Z,33.6
2018-01-10T06:37:41.299Z,43.1
2018-01-10T06:38:42.136Z,46.6
2018-01-10T06:39:42.850Z,43.8
2018-01-10T06:40:43.580Z,51.8
2018-01-10T06:41:44.320Z,49.8
2018-01-10T06:42:45.080Z,47.4
2018-01-10T06:43:45.802Z,50.0
2018-01-10T06:44:46.661Z,53.6
2018-01-10T06:45:47.390Z,61.6
2018-01-10T06:46:48.121Z,55.1
2018-01-10T06:47:48.845Z,50.7
2018-01-10T06:48:49.671Z,51.7
2018-01-10T06:49:50.404Z,52.2
2018-01-10T06:50:51.131Z,59.5
2018-01-10T06:51:51.875Z,56.9
2018-01-10T06:52:52.706Z,53.9
2018-01-10T06:53:53.670Z,59.9
2018-01-10T06:54:54.391Z,57.4
2018-01-10T06:55:55.130Z,51.5
2018-01-10T06:56:55.849Z,56.4
2018-01-10T06:57:56.579Z,61.1
2018-01-10T06:58:57.351Z,58.2
2018-01-10T06:59:58.073Z,59.7
2018-01-10T07:00:58.874Z,57.4
2018-01-10T07:01:59.591Z,58.4
2018-01-10T07:03:00.340Z,56.7
2018-01-10T07:04:01.124Z,57.7
2018-01-10T07:05:01.851Z,63.8
2018-01-10T07:06:02.570Z,57.1
2018-01-10T07:07:03.301Z,60.3
2018-01-10T07:08:04.020Z,62.2
2018-01-10T07:09:04.810Z,64.3
2018-01-10T07:10:05.579Z,63.0
2018-01-10T07:11:06.263Z,58.7
2018-01-10T07:12:07.067Z,58.3
2018-01-10T07:13:07.881Z,63.3
2018-01-10T07:14:08.610Z,60.5
2018-01-10T07:15:09.361Z,65.8
2018-01-10T07:16:10.145Z,63.3
2018-01-10T07:17:10.943Z,63.0
2018-01-10T07:18:11.662Z,61.4
2018-01-10T07:19:12.473Z,62.1
2018-01-10T07:20:13.269Z,57.5
2018-01-10T07:21:14.002Z,54.9
2018-01-10T07:22:14.812Z,61.6
2018-01-10T07:23:15.633Z,57.0
2018-01-10T07:24:16.360Z,61.6
2018-01-10T07:25:17.139Z,61.9
2018-01-10T07:26:17.884Z,67.6
2018-01-10T07:27:18.700Z,60.0
2018-01-10T07:28:19.426Z,65.6
2018-01-10T07:29:20.234Z,64.1
2018-01-10T07:30:21.083Z,58.7
2018-01-10T07:31:21.890Z,60.7
2018-01-10T07:32:22.619Z,62.4
2018-01-10T07:33:23.345Z,59.1
2018-01-10T07:34:24.069Z,64.8
2018-01-10T07:35:24.850Z,65.7
2018-01-10T07:36:25.612Z,62.3
2018-01-10T07:37:26.310Z,60.1
2018-01-10T07:38:27.035Z,64.2
2018-01-10T07:39:27.750Z,56.4
2018-01-10T07:40:28.492Z,66.5
2018-01-10T07:41:29.215Z,64.3
2018-01-10T07:42:29.950Z,72.3
2018-01-10T07:43:30.690Z,69.7
2018-01-10T07:44:31.432Z,65.1
2018-01-10T07:45:32.269Z,61.6
2018-01-10T07:46:32.949Z,67.1
2018-01-10T07:47:33.679Z,71.7
2018-01-10T07:48:34.420Z,64.0
2018-01-10T07:49:35.140Z,64.3
2018-01-10T07:50:35.878Z,68.8
2018-01-10T07:51:36.660Z,61.4
2018-01-10T07:52:37.439Z,60.6
2018-01-10T07:53:38.164Z,74.7
2018-01-10T07:54:38.885Z,71.1
2018-01-10T07:55:39.612Z,65.8
2018-01-10T07:56:40.349Z,63.2
2018-01-10T07:57:41.200Z,63.1
2018-01-10T07:58:41.972Z,60.6
2018-01-10T07:59:42.693Z,63.5
2018-01-10T08:00:43.427Z,62.8
2018-01-10T08:01:44.219Z,59.4
2018-01-10T08:02:44.950Z,59.4
2018-01-10T08:03:45.693Z,60.3
2018-01-10T08:04:46.483Z,56.1
2018-01-10T08:05:47.250Z,53.5
2018-01-10T08:06:48.028Z,54.6
2018-01-10T08:07:48.779Z,59.1
2018-01-10T08:08:49.484Z,57.0
2018-01-10T08:09:50.230Z,61.5
2018-01-10T08:10:50.982Z,56.1
2018-01-10T08:11:51.750Z,60.7
2018-01-10T08:12:52.877Z,53.9
2018-01-10T08:13:53.604Z,56.2
2018-01-10T08:14:54.326Z,55.6
2018-01-10T08:15:55.054Z,54.6
2018-01-10T08:16:55.795Z,57.6
2018-01-10T08:17:56.567Z,55.9
2018-01-10T08:18:57.728Z,52.1
2018-01-10T08:19:58.410Z,48.4
2018-01-10T08:20:59.214Z,52.0
2018-01-10T08:21:59.923Z,54.9
2018-01-10T08:23:00.651Z,54.9
2018-01-10T08:24:01.512Z,50.5
2018-01-10T08:25:02.281Z,51.0
2018-01-10T08:26:03.092Z,43.7
2018-01-10T08:27:03.826Z,50.5
2018-01-10T08:28:04.612Z,48.7
2018-01-10T08:29:05.470Z,44.9
2018-01-10T08:30:06.224Z,41.0
2018-01-10T08:31:07.057Z,36.1
2018-01-10T08:32:07.776Z,37.5
2018-01-10T08:33:08.601Z,39.3
2018-01-10T08:34:09.387Z,40.5
2018-01-10T08:35:10.120Z,36.1
2018-01-10T08:36:10.862Z,34.4
2018-01-10T08:37:11.609Z,29.4
2018-01-10T08:38:12.346Z,32.3
2018-01-10T08:39:13.087Z,29.2
2018-01-10T08:40:13.892Z,27.8
2018-01-10T08:41:14.612Z,30.3
2018-01-10T08:42:15.341Z,27.1
2018-01-10T08:43:16.179Z,29.7
2018-01-10T08:44:16.899Z,27.0
2018-01-10T08:45:17.654Z,31.4
2018-01-10T08:46:18.354Z,30.6
2018-01-10T08:47:19.079Z,25.4
2018-01-10T08:48:19.900Z,32.8
2018-01-10T08:49:20.690Z,25.7
2018-01-10T08:50:21.431Z,25.4
2018-01-10T08:51:22.172Z,28.0
2018-01-10T08:52:22.971Z,28.8
2018-01-10T08:53:23.741Z,27.4
2018-01-10T08:54:24.474Z,27.5
2018-01-10T08:55:25.200Z,26.4
2018-01-10T08:56:26.006Z,28.2
2018-01-10T08:57:26.807Z,25.4
2018-01-10T08:58:27.655Z,24.1
2018-01-10T08:59:28.438Z,24.5
2018-01-10T09:00:29.168Z,29.0
2018-01-10T09:01:29.898Z,27.0
2018-01-10T09:02:30.629Z,26.4
2018-01-10T09:03:31.411Z,26.9
2018-01-10T09:04:32.139Z,30.0
2018-01-10T09:05:32.929Z,27.8
2018-01-10T09:06:33.659Z,27.4
2018-01-10T09:07:34.399Z,28.1
2018-01-10T09:08:35.185Z,27.3
2018-01-10T09:09:36.045Z,25.7
2018-01-10T09:10:36.769Z,27.5
2018-01-10T09:11:37.510Z,28.5
2018-01-10T09:12:38.229Z,30.8
2018-01-10T09:13:38.964Z,31.4
2018-01-10T09:14:39.707Z,30.3
2018-01-10T09:15:40.481Z,28.9
2018-01-10T09:16:41.273Z,28.8
2018-01-10T09:17:42.007Z,28.2
2018-01-10T09:18:42.802Z,25.5
2018-01-10T09:19:43.609Z,25.6
2018-01-10T09:20:44.336Z,25.1
2018-01-10T09:21:45.136Z,23.0
2018-01-10T09:22:45.874Z,24.5
2018-01-10T09:23:46.678Z,25.1
2018-01-10T09:24:47.450Z,23.0
2018-01-10T09:25:48.231Z,26.6
2018-01-10T09:26:49.011Z,22.4
2018-01-10T09:27:49.750Z,22.3
2018-01-10T09:28:50.478Z,23.4
2018-01-10T09:29:51.230Z,19.4
2018-01-10T09:30:52.004Z,20.8
2018-01-10T09:31:52.787Z,21.9
2018-01-10T09:32:53.519Z,19.0
2018-01-10T09:33:54.257Z,22.3
2018-01-10T09:34:55.028Z,23.7
2018-01-10T09:35:55.748Z,22.8
2018-01-10T09:36:56.530Z,18.8
2018-01-10T09:37:57.270Z,20.6
2018-01-10T09:38:58.012Z,25.2
2018-01-10T09:39:58.730Z,19.5
2018-01-10T09:40:59.451Z,22.1
2018-01-10T09:42:00.184Z,21.8
2018-01-10T09:43:00.915Z,25.6
2018-01-10T09:44:01.644Z,23.7
2018-01-10T09:45:02.476Z,24.7
2018-01-10T09:46:03.290Z,19.4
2018-01-10T09:47:04.011Z,18.3
2018-01-10T09:48:04.734Z,25.8
2018-01-10T09:49:05.459Z,21.6
2018-01-10T09:50:06.253Z,21.1
2018-01-10T09:51:06.967Z,21.9
2018-01-10T09:52:07.784Z,26.3
2018-01-10T09:53:08.600Z,19.3
2018-01-10T09:54:09.333Z,17.7
2018-01-10T09:55:10.110Z,18.3
2018-01-10T09:56:10.841Z,17.0
2018-01-10T09:57:11.660Z,20.2
2018-01-10T09:58:12.380Z,17.1
2018-01-10T09:59:13.117Z,17.8
2018-01-10T10:00:13.893Z,17.4
2018-01-10T10:01:14.719Z,23.4
2018-01-10T10:02:15.457Z,17.3
2018-01-10T10:03:16.251Z,18.9
2018-01-10T10:04:16.935Z,20.0
2018-01-10T10:05:17.723Z,19.1
2018-01-10T10:06:18.549Z,17.1
2018-01-10T10:07:19.281Z,18.3
2018-01-10T10:08:20.018Z,20.3
2018-01-10T10:09:20.819Z,17.5
2018-01-10T10:10:21.662Z,17.7
2018-01-10T10:11:22.418Z,19.0
2018-01-10T10:12:23.142Z,18.9
2018-01-10T10:13:23.878Z,19.1
2018-01-10T10:14:24.712Z,21.9
2018-01-10T10:15:25.579Z,22.1
2018-01-10T10:16:26.310Z,20.1
2018-01-10T10:17:27.064Z,19.0
2018-01-10T10:18:27.798Z,19.5
2018-01-10T10:19:28.545Z,19.6
2018-01-10T10:20:29.310Z,18.2
2018-01-10T10:21:30.051Z,20.8
2018-01-10T10:22:30.774Z,23.1
2018-01-10T10:23:31.570Z,19.9
2018-01-10T10:24:32.315Z,17.5
2018-01-10T10:25:33.049Z,15.9
2018-01-10T10:26:33.790Z,19.5
2018-01-10T10:27:34.529Z,19.1
2018-01-10T10:28:35.265Z,21.5
2018-01-10T10:29:36.042Z,17.6
2018-01-10T10:30:36.782Z,16.3
2018-01-10T10:31:37.560Z,15.2
2018-01-10T10:32:38.283Z,15.8
2018-01-10T10:33:39.020Z,16.7
2018-01-10T10:34:39.745Z,15.0
2018-01-10T10:35:40.571Z,14.5
2018-01-10T10:36:41.371Z,17.1
2018-01-10T10:37:42.192Z,18.6
2018-01-10T10:38:42.932Z,16.9
2018-01-10T10:39:43.733Z,15.5
2018-01-10T10:40:44.540Z,17.3
2018-01-10T10:41:45.280Z,14.9
2018-01-10T10:42:46.011Z,14.9
2018-01-10T10:43:46.755Z,14.1
2018-01-10T10:44:47.519Z,14.8
2018-01-10T10:45:48.322Z,14.1
2018-01-10T10:46:49.110Z,14.5
2018-01-10T10:47:49.850Z,13.9
2018-01-10T10:48:50.592Z,16.0
2018-01-10T10:49:51.381Z,14.3
2018-01-10T10:50:52.124Z,16.2
2018-01-10T10:51:52.860Z,15.4
2018-01-10T10:52:53.594Z,13.2
2018-01-10T10:53:54.391Z,13.2
2018-01-10T10:54:55.124Z,14.1
2018-01-10T10:55:55.870Z,13.6
2018-01-10T10:56:56.599Z,14.3
2018-01-10T10:57:57.340Z,14.4
2018-01-10T10:58:58.068Z,17.5
2018-01-10T10:59:58.819Z,18.6
2018-01-10T11:00:59.562Z,15.0
2018-01-10T11:02:00.348Z,15.3
2018-01-10T11:03:01.093Z,17.8
2018-01-10T11:04:01.905Z,14.6
2018-01-10T11:05:02.637Z,18.3
2018-01-10T11:06:03.368Z,14.5
2018-01-10T11:07:04.109Z,14.9
2018-01-10T11:08:04.914Z,14.3
2018-01-10T11:09:05.629Z,14.6
2018-01-10T11:10:06.368Z,13.4
2018-01-10T11:11:07.098Z,13.9
2018-01-10T11:12:07.841Z,16.9
2018-01-10T11:13:08.693Z,15.7
2018-01-10T11:14:09.391Z,20.5
2018-01-10T11:15:10.195Z,14.4
2018-01-10T11:16:11.036Z,14.0
2018-01-10T11:17:11.789Z,15.4
2018-01-10T11:18:12.524Z,14.7
2018-01-10T11:19:13.351Z,16.6
2018-01-10T11:20:14.088Z,13.4
2018-01-10T11:21:14.834Z,12.6
2018-01-10T11:22:15.634Z,13.0
2018-01-10T11:23:16.372Z,13.3
2018-01-10T11:24:17.109Z,13.2
2018-01-10T11:25:17.889Z,13.1
2018-01-10T11:26:18.637Z,12.9
2018-01-10T11:27:19.415Z,12.7
2018-01-10T11:28:20.145Z,13.2
2018-01-10T11:29:20.880Z,13.0
2018-01-10T11:30:21.702Z,15.6
2018-01-10T11:31:22.442Z,17.5
2018-01-10T11:32:23.238Z,17.2
2018-01-10T11:33:23.969Z,12.9
2018-01-10T11:34:24.702Z,12.5
2018-01-10T11:35:25.478Z,13.3
2018-01-10T11:36:26.210Z,12.0
2018-01-10T11:37:27.029Z,12.3
2018-01-10T11:38:27.848Z,11.5
2018-01-10T11:39:28.596Z,16.8
2018-01-10T11:40:29.438Z,14.4
2018-01-10T11:41:30.245Z,11.1
2018-01-10T11:42:30.976Z,11.4
2018-01-10T11:43:31.982Z,11.3
2018-01-10T11:44:33.863Z,12.6
2018-01-10T11:45:34.817Z,11.6
2018-01-10T11:46:35.606Z,11.3
2018-01-10T11:47:36.329Z,10.7
2018-01-10T11:48:37.057Z,13.9
2018-01-10T11:49:37.806Z,11.2
2018-01-10T11:50:38.638Z,11.4
2018-01-10T11:51:39.379Z,10.5
2018-01-10T11:52:40.118Z,11.5
2018-01-10T11:53:40.859Z,10.9
2018-01-10T11:54:41.597Z,11.4
2018-01-10T11:55:42.380Z,10.2
2018-01-10T11:56:43.118Z,10.7
2018-01-10T11:57:43.856Z,10.9
2018-01-10T11:58:44.605Z,10.2
2018-01-10T11:59:45.478Z,11.2
2018-01-10T12:00:46.160Z,10.7
2018-01-10T12:01:46.890Z,13.1
2018-01-10T12:02:47.618Z,10.7
2018-01-10T12:03:48.362Z,11.1
2018-01-10T12:04:49.161Z,12.7
2018-01-10T12:05:49.977Z,15.3
2018-01-10T12:06:50.757Z,11.3
2018-01-10T12:07:51.503Z,12.6
2018-01-10T12:08:52.222Z,12.4
2018-01-10T12:09:52.994Z,13.7
2018-01-10T12:10:53.789Z,11.2
2018-01-10T12:11:54.519Z,15.7
2018-01-10T12:12:55.234Z,11.5
2018-01-10T12:13:55.957Z,11.2
2018-01-10T12:14:56.702Z,11.7
2018-01-10T12:15:57.487Z,11.6
2018-01-10T12:16:58.300Z,10.8
2018-01-10T12:17:59.029Z,11.6
2018-01-10T12:18:59.811Z,11.1
2018-01-10T12:20:00.546Z,10.9
2018-01-10T12:21:01.279Z,13.9
2018-01-10T12:22:02.018Z,10.8
2018-01-10T12:23:02.758Z,13.6
2018-01-10T12:24:03.548Z,12.2
2018-01-10T12:25:04.282Z,16.6
2018-01-10T12:26:05.024Z,12.3
2018-01-10T12:27:05.800Z,10.9
2018-01-10T12:28:06.510Z,14.8
2018-01-10T12:29:07.280Z,9.6
2018-01-10T12:30:08.013Z,10.3
2018-01-10T12:31:08.759Z,11.2
2018-01-10T12:32:09.591Z,9.6
2018-01-10T12:33:10.313Z,9.3
2018-01-10T12:34:11.153Z,9.2
2018-01-10T12:35:11.878Z,9.5
2018-01-10T12:36:12.627Z,9.7
2018-01-10T12:37:13.348Z,9.5
2018-01-10T12:38:14.070Z,9.4
2018-01-10T12:39:14.929Z,9.5
2018-01-10T12:40:15.660Z,9.1
2018-01-10T12:41:16.397Z,9.2
2018-01-10T12:42:17.188Z,8.7
2018-01-10T12:43:17.979Z,10.7
2018-01-10T12:44:18.830Z,10.9
2018-01-10T12:45:19.528Z,8.7
2018-01-10T12:46:20.271Z,13.3
2018-01-10T12:47:21.003Z,8.4
2018-01-10T12:48:21.749Z,8.6
2018-01-10T12:49:22.445Z,10.4
2018-01-10T12:50:23.216Z,9.2
2018-01-10T12:51:23.927Z,9.7
2018-01-10T12:52:24.658Z,9.2
2018-01-10T12:53:25.398Z,11.1
2018-01-10T12:54:26.128Z,9.6
2018-01-10T12:55:26.974Z,11.8
2018-01-10T12:56:27.709Z,9.8
2018-01-10T12:57:28.527Z,9.4
2018-01-10T12:58:29.258Z,9.7
2018-01-10T12:59:29.985Z,9.6
2018-01-10T13:00:30.713Z,9.5
2018-01-10T13:01:31.579Z,10.2
2018-01-10T13:02:32.326Z,10.0
2018-01-10T13:03:33.123Z,9.9
2018-01-10T13:04:33.848Z,8.8
2018-01-10T13:05:34.588Z,9.6
2018-01-10T13:06:35.386Z,11.1
2018-01-10T13:07:36.185Z,10.4
2018-01-10T13:08:36.908Z,10.5
2018-01-10T13:09:37.638Z,9.0
2018-01-10T13:10:38.430Z,9.4
2018-01-10T13:11:39.172Z,9.3
2018-01-10T13:12:39.966Z,9.3
2018-01-10T13:13:40.690Z,9.8
2018-01-10T13:14:41.534Z,10.0
2018-01-10T13:15:42.232Z,9.1
2018-01-10T13:16:42.959Z,9.6
2018-01-10T13:17:43.740Z,13.2
2018-01-10T13:18:44.559Z,11.1
2018-01-10T13:19:45.297Z,9.0
2018-01-10T13:20:46.097Z,11.9
2018-01-10T13:21:46.832Z,10.3
2018-01-10T13:22:47.570Z,9.5
2018-01-10T13:23:48.378Z,10.0
2018-01-10T13:24:49.118Z,15.4
2018-01-10T13:25:49.858Z,11.4
2018-01-10T13:26:51.639Z,12.8
2018-01-10T13:27:52.579Z,11.4
2018-01-10T13:28:53.357Z,10.9
2018-01-10T13:29:54.098Z,9.8
2018-01-10T13:30:54.898Z,9.0